Time;durP1;ratioP1;P1;durP2;ratioP2;P2;SDS_P1;SDS_P2;PMS_P1;PMS_P2;Temp;Humidity;BMP_temperature;BMP_pressure;BME280_temperature;BME280_humidity;BME280_pressure;Samples;Min_cycle;Max_cycle;Signal;HPM_P1;HPM_P2
2022/06/20 00:02:28;;;;;;;2.92;2.63;;;;;;;;;;4995750;28;20039;-76
2022/06/20 00:05:17;;;;;;;3.50;2.90;;;;;;;;;;4995296;28;20058;-77
2022/06/20 00:08:06;;;;;;;6.03;3.17;;;;;;;;;;5000984;28;20046;-77
2022/06/20 00:10:52;;;;;;;4.88;3.13;;;;;;;;;;4995874;28;20392;-76
2022/06/20 00:13:40;;;;;;;3.97;2.80;;;;;;;;;;4995173;28;20046;-76
2022/06/20 00:16:30;;;;;;;4.53;2.90;;;;;;;;;;4988928;28;20045;-80
2022/06/20 00:19:15;;;;;;;3.97;2.63;;;;;;;;;;4996087;28;20496;-79
2022/06/20 00:22:02;;;;;;;3.72;3.03;;;;;;;;;;4995226;28;20046;-79
2022/06/20 00:24:47;;;;;;;4.00;3.35;;;;;;;;;;4995036;28;20050;-77
2022/06/20 00:27:33;;;;;;;6.30;2.90;;;;;;;;;;4995354;28;20046;-78
2022/06/20 00:30:21;;;;;;;3.38;2.90;;;;;;;;;;5000725;28;20042;-80
2022/06/20 00:33:07;;;;;;;3.25;2.90;;;;;;;;;;4986948;28;20046;-78
2022/06/20 00:35:53;;;;;;;3.08;2.75;;;;;;;;;;4979829;28;20058;-77
2022/06/20 00:38:38;;;;;;;3.00;2.67;;;;;;;;;;4994823;28;20039;-76
2022/06/20 00:41:28;;;;;;;3.50;3.00;;;;;;;;;;4994857;28;20113;-76
2022/06/20 00:44:45;;;;;;;3.95;2.95;;;;;;;;;;4994899;28;20054;-78
2022/06/20 00:47:33;;;;;;;5.65;2.83;;;;;;;;;;4990513;28;20050;-78
2022/06/20 00:50:30;;;;;;;8.15;3.10;;;;;;;;;;4994538;28;20424;-79
2022/06/20 00:53:21;;;;;;;7.20;3.30;;;;;;;;;;4995228;28;20038;-79
2022/06/20 00:56:18;;;;;;;4.25;2.92;;;;;;;;;;4994866;28;20050;-79
2022/06/20 00:59:11;;;;;;;3.50;2.92;;;;;;;;;;4995209;28;20476;-79
2022/06/20 01:01:59;;;;;;;3.65;3.22;;;;;;;;;;4995079;28;20046;-76
2022/06/20 01:04:58;;;;;;;3.67;3.30;;;;;;;;;;4997447;28;20483;-76
2022/06/20 01:07:51;;;;;;;7.90;2.83;;;;;;;;;;4997287;28;20050;-77
2022/06/20 01:11:07;;;;;;;8.02;3.33;;;;;;;;;;4998032;28;20050;-79
2022/06/20 01:13:54;;;;;;;5.55;3.13;;;;;;;;;;5006785;28;20046;-76
2022/06/20 01:16:39;;;;;;;5.30;3.13;;;;;;;;;;4993257;28;20042;-78
2022/06/20 01:19:53;;;;;;;18.40;3.50;;;;;;;;;;4996701;28;20050;-78
2022/06/20 01:22:56;;;;;;;6.47;3.80;;;;;;;;;;4998681;28;20055;-78
2022/06/20 01:26:23;;;;;;;4.05;3.65;;;;;;;;;;4993484;28;20038;-79
2022/06/20 01:29:11;;;;;;;4.50;3.53;;;;;;;;;;4994208;28;20046;-78
2022/06/20 01:31:59;;;;;;;5.68;3.50;;;;;;;;;;5000328;28;20038;-79
2022/06/20 01:34:45;;;;;;;7.05;3.85;;;;;;;;;;4994039;28;20046;-76
2022/06/20 01:37:33;;;;;;;4.15;3.70;;;;;;;;;;4994754;28;20050;-76
2022/06/20 01:40:18;;;;;;;4.10;3.30;;;;;;;;;;4993333;28;20046;-77
2022/06/20 01:43:05;;;;;;;4.72;3.30;;;;;;;;;;4994439;28;20491;-76
2022/06/20 01:45:58;;;;;;;5.40;3.30;;;;;;;;;;4996520;28;20408;-78
2022/06/20 01:48:49;;;;;;;5.03;3.28;;;;;;;;;;4996806;28;20479;-77
2022/06/20 01:51:38;;;;;;;6.07;3.10;;;;;;;;;;4998574;28;20058;-75
2022/06/20 01:54:28;;;;;;;3.58;3.10;;;;;;;;;;4997361;28;20443;-78
2022/06/20 01:57:15;;;;;;;5.60;3.33;;;;;;;;;;4997781;28;20050;-76
2022/06/20 02:00:07;;;;;;;4.75;3.00;;;;;;;;;;5003841;28;20042;-78
2022/06/20 02:02:56;;;;;;;6.28;3.10;;;;;;;;;;4996608;28;20396;-78
2022/06/20 02:05:44;;;;;;;4.65;3.00;;;;;;;;;;4997872;28;20046;-76
2022/06/20 02:08:31;;;;;;;3.40;2.95;;;;;;;;;;4997117;28;20046;-77
2022/06/20 02:11:24;;;;;;;3.78;2.88;;;;;;;;;;4997850;28;20042;-76
2022/06/20 02:14:24;;;;;;;4.63;2.88;;;;;;;;;;4997165;28;20050;-78
2022/06/20 02:17:18;;;;;;;5.53;2.80;;;;;;;;;;4997438;28;20042;-75
2022/06/20 02:20:13;;;;;;;7.40;3.00;;;;;;;;;;5004086;28;20050;-76
2022/06/20 02:22:59;;;;;;;6.57;3.30;;;;;;;;;;4996024;28;20086;-76
2022/06/20 02:25:49;;;;;;;6.32;3.33;;;;;;;;;;4996682;28;20051;-77
2022/06/20 02:28:46;;;;;;;7.32;3.40;;;;;;;;;;4996905;28;20054;-75
2022/06/20 02:31:32;;;;;;;4.45;3.15;;;;;;;;;;4997322;28;20054;-75
2022/06/20 02:34:18;;;;;;;5.85;3.45;;;;;;;;;;4996980;28;20054;-75
2022/06/20 02:37:09;;;;;;;9.68;3.03;;;;;;;;;;4996530;28;20042;-75
2022/06/20 02:39:58;;;;;;;4.07;3.20;;;;;;;;;;4997006;28;20058;-75
2022/06/20 02:42:45;;;;;;;5.75;2.78;;;;;;;;;;4996446;28;20391;-77
2022/06/20 02:45:33;;;;;;;3.40;3.08;;;;;;;;;;4996386;28;20058;-77
2022/06/20 02:48:20;;;;;;;2.95;2.65;;;;;;;;;;4998141;28;20046;-74
2022/06/20 02:51:07;;;;;;;3.40;3.10;;;;;;;;;;4996218;28;20058;-77
2022/06/20 02:53:57;;;;;;;3.60;3.13;;;;;;;;;;4996776;28;20046;-74
2022/06/20 02:56:52;;;;;;;4.00;3.20;;;;;;;;;;4995661;28;20043;-77
2022/06/20 02:59:44;;;;;;;5.28;3.17;;;;;;;;;;4996509;28;20038;-75
2022/06/20 03:02:36;;;;;;;3.95;3.30;;;;;;;;;;4996343;28;20042;-75
2022/06/20 03:05:21;;;;;;;6.57;3.13;;;;;;;;;;4995605;28;20046;-76
2022/06/20 03:08:07;;;;;;;9.13;3.42;;;;;;;;;;4996833;28;20038;-75
2022/06/20 03:10:53;;;;;;;5.78;3.10;;;;;;;;;;4996118;28;20054;-77
2022/06/20 03:13:40;;;;;;;4.40;3.55;;;;;;;;;;4991211;28;20046;-77
2022/06/20 03:16:27;;;;;;;10.88;3.35;;;;;;;;;;4996109;28;20050;-77
2022/06/20 03:19:27;;;;;;;3.75;3.20;;;;;;;;;;4995582;28;20046;-78
2022/06/20 03:22:17;;;;;;;4.03;3.10;;;;;;;;;;5002861;28;20058;-78
2022/06/20 03:25:04;;;;;;;6.55;3.15;;;;;;;;;;4995662;28;20058;-75
2022/06/20 03:27:52;;;;;;;4.15;3.17;;;;;;;;;;4995956;28;20058;-75
2022/06/20 03:30:38;;;;;;;6.25;3.17;;;;;;;;;;4996244;28;20050;-75
2022/06/20 03:33:24;;;;;;;8.48;3.60;;;;;;;;;;4995300;28;20499;-77
2022/06/20 03:36:20;;;;;;;4.85;2.90;;;;;;;;;;4995605;28;20042;-78
2022/06/20 03:39:06;;;;;;;5.00;3.33;;;;;;;;;;5002120;28;20042;-75
2022/06/20 03:41:52;;;;;;;5.22;3.30;;;;;;;;;;5015275;28;20053;-77
2022/06/20 03:44:45;;;;;;;6.22;3.20;;;;;;;;;;5015079;28;20046;-75
2022/06/20 03:48:00;;;;;;;4.95;3.63;;;;;;;;;;5014507;28;20479;-76
2022/06/20 03:51:02;;;;;;;4.95;3.45;;;;;;;;;;5022174;28;20057;-74
2022/06/20 03:54:02;;;;;;;4.85;3.72;;;;;;;;;;5014688;28;20042;-74
2022/06/20 03:57:08;;;;;;;12.27;3.80;;;;;;;;;;5015046;28;20054;-75
2022/06/20 04:00:03;;;;;;;;;;;;;;;;;;5022102;28;20042;-76
2022/06/20 04:02:59;;;;;;;6.40;4.05;;;;;;;;;;5014259;28;19918;-77
2022/06/20 04:05:52;;;;;;;6.32;3.90;;;;;;;;;;5014798;28;20045;-77
2022/06/20 04:12:17;;;;;;;7.32;3.20;;;;;;;;;;5014431;28;20054;-77
2022/06/20 04:15:14;;;;;;;6.88;3.30;;;;;;;;;;5014452;28;20046;-75
2022/06/20 04:18:46;;;;;;;4.35;3.30;;;;;;;;;;5021283;28;20049;-74
2022/06/20 04:21:34;;;;;;;4.47;3.40;;;;;;;;;;5007886;28;20042;-74
2022/06/20 04:24:39;;;;;;;6.25;3.42;;;;;;;;;;5014024;28;20050;-75
2022/06/20 04:27:41;;;;;;;4.28;3.30;;;;;;;;;;5014616;28;20054;-77
2022/06/20 04:30:54;;;;;;;5.22;3.40;;;;;;;;;;5020905;28;20033;-74
2022/06/20 04:34:03;;;;;;;4.07;3.53;;;;;;;;;;5000524;28;20487;-77
2022/06/20 04:37:00;;;;;;;8.40;3.90;;;;;;;;;;5020061;28;20049;-75
2022/06/20 04:39:52;;;;;;;6.45;4.05;;;;;;;;;;5014359;28;20411;-77
2022/06/20 04:43:01;;;;;;;9.52;4.28;;;;;;;;;;5014565;28;20038;-78
2022/06/20 04:45:59;;;;;;;7.93;3.90;;;;;;;;;;5020185;28;20057;-77
2022/06/20 04:48:47;;;;;;;8.20;3.88;;;;;;;;;;5013765;28;20435;-77
2022/06/20 04:51:36;;;;;;;14.05;4.00;;;;;;;;;;5013698;28;20054;-78
2022/06/20 04:54:22;;;;;;;7.72;3.75;;;;;;;;;;5014056;28;20046;-77
2022/06/20 04:57:09;;;;;;;6.10;3.97;;;;;;;;;;5014032;28;20041;-76
2022/06/20 04:59:58;;;;;;;10.05;3.80;;;;;;;;;;5019817;28;20050;-78
2022/06/20 05:02:43;;;;;;;8.75;4.07;;;;;;;;;;5013884;28;20053;-75
2022/06/20 05:05:33;;;;;;;6.55;3.92;;;;;;;;;;5019840;28;20050;-78
2022/06/20 05:08:26;;;;;;;5.97;3.50;;;;;;;;;;5005816;28;20042;-76
2022/06/20 05:11:20;;;;;;;10.10;4.10;;;;;;;;;;5020386;28;20050;-78
2022/06/20 05:14:41;;;;;;;5.35;3.65;;;;;;;;;;5011619;28;20046;-77
2022/06/20 05:17:29;;;;;;;8.35;4.18;;;;;;;;;;5003378;28;20042;-75
2022/06/20 05:20:26;;;;;;;5.57;3.53;;;;;;;;;;5013409;28;20058;-75
2022/06/20 05:23:16;;;;;;;5.15;3.47;;;;;;;;;;5019261;28;20395;-75
2022/06/20 05:26:04;;;;;;;6.00;3.97;;;;;;;;;;5013424;28;20050;-78
2022/06/20 05:28:52;;;;;;;6.35;3.85;;;;;;;;;;5013617;28;20042;-77
2022/06/20 05:31:44;;;;;;;10.95;3.90;;;;;;;;;;5013738;28;20034;-76
2022/06/20 05:34:41;;;;;;;7.65;3.60;;;;;;;;;;5013365;28;20042;-76
2022/06/20 05:37:56;;;;;;;6.38;3.85;;;;;;;;;;5013608;28;20412;-76
2022/06/20 05:40:48;;;;;;;;;;;;;;;;;;5020229;28;20399;-75
2022/06/20 05:43:34;;;;;;;8.40;3.67;;;;;;;;;;5013414;28;19917;-76
2022/06/20 05:46:25;;;;;;;11.10;3.85;;;;;;;;;;4998593;28;20046;-78
2022/06/20 05:49:16;;;;;;;6.38;4.57;;;;;;;;;;4993066;28;20476;-77
2022/06/20 05:52:05;;;;;;;9.82;4.43;;;;;;;;;;4993851;28;20050;-75
2022/06/20 05:54:59;;;;;;;8.80;4.15;;;;;;;;;;4993482;28;20051;-78
2022/06/20 05:57:48;;;;;;;7.63;4.18;;;;;;;;;;4993771;28;20043;-75
2022/06/20 06:00:36;;;;;;;11.88;5.18;;;;;;;;;;4993623;28;20399;-76
2022/06/20 06:03:31;;;;;;;9.77;4.90;;;;;;;;;;4993221;28;20042;-75
2022/06/20 06:06:23;;;;;;;7.22;4.45;;;;;;;;;;4993398;28;20046;-75
2022/06/20 06:09:42;;;;;;;6.85;4.30;;;;;;;;;;4999991;28;20043;-75
2022/06/20 06:12:42;;;;;;;10.40;4.47;;;;;;;;;;5000342;28;20055;-79
2022/06/20 06:19:39;;;;;;;9.40;4.97;;;;;;;;;;4993640;28;20058;-77
2022/06/20 06:22:26;;;;;;;7.32;3.50;;;;;;;;;;4993659;28;20051;-75
2022/06/20 06:25:27;;;;;;;5.57;3.65;;;;;;;;;;4993072;28;20050;-75
2022/06/20 06:28:19;;;;;;;11.40;3.80;;;;;;;;;;4993502;28;20054;-77
2022/06/20 06:31:14;;;;;;;6.70;3.30;;;;;;;;;;5001192;28;20042;-77
2022/06/20 06:34:21;;;;;;;4.93;3.65;;;;;;;;;;5003414;28;20480;-78
2022/06/20 06:37:18;;;;;;;6.10;3.70;;;;;;;;;;4997204;28;20046;-75
2022/06/20 06:40:13;;;;;;;11.38;3.70;;;;;;;;;;5003197;28;20043;-75
2022/06/20 06:43:00;;;;;;;11.00;3.63;;;;;;;;;;4997032;28;20050;-77
2022/06/20 06:45:48;;;;;;;6.85;3.70;;;;;;;;;;4996275;28;20055;-77
2022/06/20 06:48:49;;;;;;;6.70;3.28;;;;;;;;;;4996402;28;20039;-77
2022/06/20 06:51:43;;;;;;;11.50;3.50;;;;;;;;;;5002970;28;20054;-77
2022/06/20 06:55:01;;;;;;;6.25;3.13;;;;;;;;;;4996493;28;20046;-76
2022/06/20 06:58:01;;;;;;;5.18;2.85;;;;;;;;;;4993600;28;20050;-75
2022/06/20 07:00:54;;;;;;;6.00;2.60;;;;;;;;;;4995963;28;20050;-77
2022/06/20 07:03:45;;;;;;;5.00;2.60;;;;;;;;;;4996437;28;20050;-77
2022/06/20 07:06:40;;;;;;;4.32;2.72;;;;;;;;;;5001330;28;20046;-75
2022/06/20 07:09:46;;;;;;;5.22;2.80;;;;;;;;;;5002898;28;20046;-75
2022/06/20 07:12:38;;;;;;;4.13;2.60;;;;;;;;;;4996659;28;20046;-75
2022/06/20 07:15:24;;;;;;;4.13;2.47;;;;;;;;;;4996130;28;20054;-77
2022/06/20 07:18:25;;;;;;;2.97;2.50;;;;;;;;;;4996894;28;20368;-77
2022/06/20 07:21:13;;;;;;;4.10;2.88;;;;;;;;;;4995750;28;20042;-77
2022/06/20 07:24:07;;;;;;;4.22;2.70;;;;;;;;;;4996258;28;20054;-77
2022/06/20 07:27:18;;;;;;;5.43;2.78;;;;;;;;;;4995001;28;20046;-75
2022/06/20 07:30:10;;;;;;;5.95;2.55;;;;;;;;;;4995741;28;20046;-76
2022/06/20 07:32:59;;;;;;;7.95;3.10;;;;;;;;;;4995273;28;20046;-75
2022/06/20 07:35:49;;;;;;;6.90;2.92;;;;;;;;;;4995481;28;20046;-78
2022/06/20 07:39:03;;;;;;;4.95;2.72;;;;;;;;;;4996001;28;20042;-78
2022/06/20 07:41:58;;;;;;;7.57;3.08;;;;;;;;;;4995273;28;20054;-78
2022/06/20 07:44:49;;;;;;;4.28;2.60;;;;;;;;;;4995437;28;20062;-78
2022/06/20 07:47:48;;;;;;;3.15;2.55;;;;;;;;;;4998507;28;20042;-78
2022/06/20 07:50:38;;;;;;;5.43;2.78;;;;;;;;;;5001476;28;20050;-78
2022/06/20 07:53:42;;;;;;;8.35;3.22;;;;;;;;;;4995828;28;20046;-75
2022/06/20 07:56:37;;;;;;;3.72;2.72;;;;;;;;;;4995170;28;20054;-77
2022/06/20 07:59:29;;;;;;;;;;;;;;;;;;4995874;28;20043;-76
2022/06/20 08:02:18;;;;;;;20.98;3.03;;;;;;;;;;4995416;28;19917;-75
2022/06/20 08:05:06;;;;;;;4.07;2.80;;;;;;;;;;4995125;28;20046;-77
2022/06/20 08:07:58;;;;;;;7.22;2.63;;;;;;;;;;4995503;28;20054;-78
2022/06/20 08:10:48;;;;;;;7.40;2.65;;;;;;;;;;4994972;28;20050;-76
2022/06/20 08:13:50;;;;;;;4.80;2.78;;;;;;;;;;5001774;28;20488;-78
2022/06/20 08:16:37;;;;;;;8.15;2.70;;;;;;;;;;4995265;28;20396;-75
2022/06/20 08:19:23;;;;;;;3.35;2.50;;;;;;;;;;5001367;28;20492;-75
2022/06/20 08:22:15;;;;;;;7.32;2.80;;;;;;;;;;4995207;28;20043;-75
2022/06/20 08:25:34;;;;;;;3.05;2.50;;;;;;;;;;4994529;28;20046;-78
2022/06/20 08:28:23;;;;;;;10.10;2.80;;;;;;;;;;4995031;28;20396;-77
2022/06/20 08:31:25;;;;;;;6.35;2.72;;;;;;;;;;4994875;28;20046;-79
2022/06/20 08:34:34;;;;;;;6.38;2.90;;;;;;;;;;4994681;28;20050;-75
2022/06/20 08:37:20;;;;;;;3.78;2.63;;;;;;;;;;4995073;28;20057;-77
2022/06/20 08:40:09;;;;;;;5.15;2.83;;;;;;;;;;4979762;28;20038;-78
2022/06/20 08:43:32;;;;;;;4.22;2.83;;;;;;;;;;4994834;28;20050;-76
2022/06/20 08:46:39;;;;;;;2.97;2.65;;;;;;;;;;4914903;29;20556;-77
2022/06/20 08:50:01;;;;;;;5.13;2.78;;;;;;;;;;4994738;28;20049;-75
2022/06/20 08:53:32;;;;;;;6.60;2.45;;;;;;;;;;4993974;28;20395;-76
2022/06/20 08:56:44;;;;;;;5.40;2.38;;;;;;;;;;4979305;28;20050;-76
2022/06/20 08:59:48;;;;;;;5.43;2.35;;;;;;;;;;4994322;28;20042;-78
2022/06/20 09:02:58;;;;;;;4.10;2.50;;;;;;;;;;4994298;28;20057;-75
2022/06/20 09:06:16;;;;;;;3.42;2.35;;;;;;;;;;5000794;28;20050;-74
2022/06/20 09:09:27;;;;;;;5.07;2.65;;;;;;;;;;4993740;28;20050;-76
2022/06/20 09:12:39;;;;;;;4.35;2.15;;;;;;;;;;4994852;28;20050;-75
2022/06/20 09:15:42;;;;;;;2.83;2.10;;;;;;;;;;5000253;28;20042;-76
2022/06/20 09:18:47;;;;;;;4.60;2.45;;;;;;;;;;4979855;28;20042;-75
2022/06/20 09:21:51;;;;;;;3.10;1.95;;;;;;;;;;4993720;28;20042;-75
2022/06/20 09:24:37;;;;;;;;;;;;;;;;;;4995194;28;20053;-77
2022/06/20 09:27:42;;;;;;;4.82;2.20;;;;;;;;;;4994452;28;20240;-77
2022/06/20 09:30:45;;;;;;;3.00;1.95;;;;;;;;;;4993659;28;20399;-76
2022/06/20 09:33:50;;;;;;;3.20;2.00;;;;;;;;;;5000581;28;20046;-77
2022/06/20 09:37:03;;;;;;;2.60;1.90;;;;;;;;;;4993520;28;20054;-78
2022/06/20 09:40:07;;;;;;;3.63;2.08;;;;;;;;;;4994214;28;20054;-76
2022/06/20 09:42:58;;;;;;;4.53;2.08;;;;;;;;;;4999801;28;20476;-76
2022/06/20 09:45:46;;;;;;;2.65;1.95;;;;;;;;;;5000651;28;20475;-76
2022/06/20 09:48:52;;;;;;;3.50;2.30;;;;;;;;;;4993680;28;20039;-73
2022/06/20 09:52:05;;;;;;;3.72;2.10;;;;;;;;;;4987810;28;20067;-74
2022/06/20 09:55:01;;;;;;;5.50;2.20;;;;;;;;;;4993754;28;20047;-74
2022/06/20 09:58:08;;;;;;;4.22;2.00;;;;;;;;;;4993241;28;20050;-76
2022/06/20 10:01:07;;;;;;;5.68;2.15;;;;;;;;;;5000313;28;20050;-76
2022/06/20 10:04:17;;;;;;;3.00;2.20;;;;;;;;;;4993502;28;20050;-74
2022/06/20 10:07:29;;;;;;;4.45;2.40;;;;;;;;;;4997161;28;20050;-75
2022/06/20 10:10:33;;;;;;;5.70;2.63;;;;;;;;;;5004070;28;20051;-73
2022/06/20 10:13:18;;;;;;;;;;;;;;;;;;4997907;28;20372;-73
2022/06/20 10:16:43;;;;;;;3.55;2.30;;;;;;;;;;4997347;28;19913;-77
2022/06/20 10:19:40;;;;;;;4.22;2.22;;;;;;;;;;4963763;28;20047;-76
2022/06/20 10:22:43;;;;;;;3.78;2.42;;;;;;;;;;4997412;28;20066;-74
2022/06/20 10:26:07;;;;;;;7.15;2.13;;;;;;;;;;4996540;28;20046;-74
2022/06/20 10:29:01;;;;;;;4.15;2.45;;;;;;;;;;4997243;28;20046;-76
2022/06/20 10:32:14;;;;;;;4.63;2.33;;;;;;;;;;5003594;28;20384;-73
2022/06/20 10:35:11;;;;;;;4.38;2.40;;;;;;;;;;4997056;28;20062;-76
2022/06/20 10:38:08;;;;;;;4.78;2.22;;;;;;;;;;4997117;28;20050;-75
2022/06/20 10:41:04;;;;;;;3.30;2.50;;;;;;;;;;4996432;28;20054;-73
2022/06/20 10:44:01;;;;;;;3.35;2.22;;;;;;;;;;5003674;28;20379;-74
2022/06/20 10:47:11;;;;;;;3.08;2.63;;;;;;;;;;4997826;28;20054;-74
2022/06/20 10:50:27;;;;;;;6.13;2.63;;;;;;;;;;5016370;28;20050;-75
2022/06/20 10:53:31;;;;;;;3.97;2.40;;;;;;;;;;5022810;28;20038;-75
2022/06/20 10:56:38;;;;;;;7.75;2.63;;;;;;;;;;5016088;28;20399;-75
2022/06/20 10:59:39;;;;;;;6.32;2.88;;;;;;;;;;5016181;28;20050;-76
2022/06/20 11:02:57;;;;;;;3.38;2.30;;;;;;;;;;5015751;28;20054;-75
2022/06/20 11:05:52;;;;;;;3.60;2.70;;;;;;;;;;5015777;28;20046;-73
2022/06/20 11:08:49;;;;;;;7.60;2.78;;;;;;;;;;5000846;28;20491;-73
2022/06/20 11:11:43;;;;;;;3.20;2.42;;;;;;;;;;5022643;28;20041;-73
2022/06/20 11:14:41;;;;;;;3.55;2.50;;;;;;;;;;5015808;28;20422;-75
2022/06/20 11:17:29;;;;;;;4.53;2.50;;;;;;;;;;5015329;28;20054;-77
2022/06/20 11:20:19;;;;;;;5.20;2.72;;;;;;;;;;5016040;28;20058;-75
2022/06/20 11:23:15;;;;;;;6.50;2.63;;;;;;;;;;5015237;28;20038;-73
2022/06/20 11:26:18;;;;;;;5.68;2.70;;;;;;;;;;5015646;28;20037;-73
2022/06/20 11:29:14;;;;;;;3.93;2.30;;;;;;;;;;5015312;28;20042;-73
2022/06/20 11:32:23;;;;;;;4.43;2.97;;;;;;;;;;5015471;28;20284;-76
2022/06/20 11:35:30;;;;;;;6.93;2.63;;;;;;;;;;5022062;28;20050;-72
2022/06/20 11:38:52;;;;;;;7.93;2.58;;;;;;;;;;5012889;28;20054;-74
2022/06/20 11:41:47;;;;;;;4.57;2.63;;;;;;;;;;5015642;28;20042;-75
2022/06/20 11:45:22;;;;;;;2.58;2.38;;;;;;;;;;5014738;28;20042;-74
2022/06/20 11:48:19;;;;;;;4.60;2.53;;;;;;;;;;5013784;28;20415;-75
2022/06/20 11:51:22;;;;;;;3.33;2.45;;;;;;;;;;5014899;28;20042;-76
2022/06/20 11:54:19;;;;;;;7.28;2.75;;;;;;;;;;5015053;28;20049;-74
2022/06/20 11:57:42;;;;;;;5.80;2.60;;;;;;;;;;5015061;28;20038;-74
2022/06/20 12:00:46;;;;;;;4.90;2.70;;;;;;;;;;5020584;28;20053;-74
2022/06/20 12:03:39;;;;;;;5.57;2.92;;;;;;;;;;5021685;28;20062;-76
2022/06/20 12:06:24;;;;;;;5.07;2.70;;;;;;;;;;5020864;28;20042;-77
2022/06/20 12:09:22;;;;;;;5.15;2.42;;;;;;;;;;5015158;28;20041;-77
2022/06/20 12:12:24;;;;;;;5.63;2.40;;;;;;;;;;5021285;28;20403;-73
2022/06/20 12:15:35;;;;;;;3.63;2.40;;;;;;;;;;5014940;28;20395;-77
2022/06/20 12:18:39;;;;;;;6.20;2.70;;;;;;;;;;5014694;28;20045;-74
2022/06/20 12:24:29;;;;;;;6.00;2.10;;;;;;;;;;5014773;28;20041;-73
2022/06/20 12:27:20;;;;;;;9.52;2.60;;;;;;;;;;5013741;28;20050;-73
2022/06/20 12:30:11;;;;;;;5.03;2.65;;;;;;;;;;5014404;28;20050;-74
2022/06/20 12:32:57;;;;;;;6.63;2.53;;;;;;;;;;5014899;28;20474;-75
2022/06/20 12:35:49;;;;;;;5.35;2.58;;;;;;;;;;5014450;28;20483;-77
2022/06/20 12:38:50;;;;;;;5.45;2.80;;;;;;;;;;5014543;28;20050;-73
2022/06/20 12:41:44;;;;;;;4.75;2.92;;;;;;;;;;5020557;28;20045;-74
2022/06/20 12:44:48;;;;;;;5.35;2.70;;;;;;;;;;5021162;28;20384;-77
2022/06/20 12:47:39;;;;;;;5.63;2.33;;;;;;;;;;5013504;28;20046;-74
2022/06/20 12:50:50;;;;;;;5.30;2.70;;;;;;;;;;5014099;28;20400;-73
2022/06/20 12:53:46;;;;;;;5.30;2.40;;;;;;;;;;5014129;28;20046;-77
2022/06/20 12:56:43;;;;;;;9.70;2.40;;;;;;;;;;5013709;28;20042;-77
2022/06/20 12:59:41;;;;;;;6.43;2.30;;;;;;;;;;5013969;28;20045;-73
2022/06/20 13:02:45;;;;;;;4.28;2.20;;;;;;;;;;5013745;28;20046;-74
2022/06/20 13:06:14;;;;;;;5.93;2.10;;;;;;;;;;5013843;28;20045;-76
2022/06/20 13:09:36;;;;;;;3.88;2.58;;;;;;;;;;5013747;28;20292;-74
2022/06/20 13:12:38;;;;;;;5.82;2.20;;;;;;;;;;5013879;28;20042;-77
2022/06/20 13:15:26;;;;;;;6.72;2.40;;;;;;;;;;5020450;28;20053;-77
2022/06/20 13:18:45;;;;;;;4.10;2.20;;;;;;;;;;5013464;28;20053;-76
2022/06/20 13:21:45;;;;;;;7.13;2.47;;;;;;;;;;5013785;28;20038;-77
2022/06/20 13:24:41;;;;;;;4.10;2.20;;;;;;;;;;5013461;28;20415;-76
2022/06/20 13:27:48;;;;;;;6.20;2.17;;;;;;;;;;5013370;28;20187;-75
2022/06/20 13:31:08;;;;;;;6.05;2.30;;;;;;;;;;5013160;28;20050;-75
2022/06/20 13:33:53;;;;;;;6.75;2.38;;;;;;;;;;5008684;28;20046;-76
2022/06/20 13:36:44;;;;;;;3.65;2.15;;;;;;;;;;5013261;28;20042;-74
2022/06/20 13:39:57;;;;;;;4.47;2.20;;;;;;;;;;5014167;28;20046;-78
2022/06/20 13:42:54;;;;;;;3.17;2.20;;;;;;;;;;5017171;28;20475;-77
2022/06/20 13:45:59;;;;;;;7.07;2.45;;;;;;;;;;5017027;28;20045;-75
2022/06/20 13:48:52;;;;;;;7.03;2.17;;;;;;;;;;5017034;28;20050;-77
2022/06/20 13:51:50;;;;;;;5.18;2.20;;;;;;;;;;5023518;28;20046;-77
2022/06/20 13:54:43;;;;;;;8.65;2.50;;;;;;;;;;5023620;28;20493;-77
2022/06/20 13:57:39;;;;;;;5.15;2.08;;;;;;;;;;5017409;28;20480;-77
2022/06/20 14:00:31;;;;;;;2.13;1.92;;;;;;;;;;5016862;28;20042;-76
2022/06/20 14:03:23;;;;;;;2.75;2.10;;;;;;;;;;5016868;28;20046;-74
2022/06/20 14:06:14;;;;;;;6.50;2.35;;;;;;;;;;5023286;28;20049;-74
2022/06/20 14:09:03;;;;;;;4.95;2.30;;;;;;;;;;5017246;28;20392;-73
2022/06/20 14:11:57;;;;;;;3.35;2.10;;;;;;;;;;5015852;28;20042;-76
2022/06/20 14:14:47;;;;;;;6.32;2.50;;;;;;;;;;5016703;28;20049;-76
2022/06/20 14:17:36;;;;;;;6.22;2.50;;;;;;;;;;5016963;28;20041;-74
2022/06/20 14:20:33;;;;;;;3.33;2.25;;;;;;;;;;5008411;28;20046;-76
2022/06/20 14:23:21;;;;;;;6.72;2.50;;;;;;;;;;5016654;28;20058;-74
2022/06/20 14:26:25;;;;;;;3.38;2.13;;;;;;;;;;5002141;28;20045;-74
2022/06/20 14:29:35;;;;;;;3.00;2.40;;;;;;;;;;5023224;28;20459;-74
2022/06/20 14:32:28;;;;;;;10.07;3.67;;;;;;;;;;5023524;28;20038;-73
2022/06/20 14:35:22;;;;;;;3.33;1.95;;;;;;;;;;5022717;28;20479;-75
2022/06/20 14:38:26;;;;;;;9.70;5.22;;;;;;;;;;5016642;28;20046;-73
2022/06/20 14:41:39;;;;;;;7.03;2.33;;;;;;;;;;5016044;28;20042;-76
2022/06/20 14:44:27;;;;;;;5.95;2.20;;;;;;;;;;5015812;28;20054;-76
2022/06/20 14:47:31;;;;;;;5.72;2.25;;;;;;;;;;5015242;28;20057;-76
2022/06/20 14:50:22;;;;;;;5.43;2.30;;;;;;;;;;5015338;28;20424;-76
2022/06/20 14:53:16;;;;;;;5.28;2.10;;;;;;;;;;5016056;28;20038;-73
2022/06/20 14:56:28;;;;;;;12.60;2.50;;;;;;;;;;5000705;28;20038;-73
2022/06/20 14:59:42;;;;;;;7.45;2.40;;;;;;;;;;5014995;28;20046;-77
2022/06/20 15:03:14;;;;;;;8.73;2.03;;;;;;;;;;5016239;28;20495;-75
2022/06/20 15:06:12;;;;;;;4.43;2.25;;;;;;;;;;4955596;28;20059;-77
2022/06/20 15:09:32;;;;;;;4.40;2.28;;;;;;;;;;5015957;28;20057;-74
2022/06/20 15:12:24;;;;;;;6.05;2.45;;;;;;;;;;5015756;28;20054;-75
2022/06/20 15:15:27;;;;;;;5.93;1.95;;;;;;;;;;5015994;28;20042;-77
2022/06/20 15:18:42;;;;;;;5.38;2.30;;;;;;;;;;5006895;28;20042;-77
2022/06/20 15:21:42;;;;;;;4.35;1.65;;;;;;;;;;5022389;28;20062;-73
2022/06/20 15:24:41;;;;;;;2.90;1.92;;;;;;;;;;5021835;28;20042;-78
2022/06/20 15:27:40;;;;;;;4.68;2.20;;;;;;;;;;5015520;28;20046;-74
2022/06/20 15:30:33;;;;;;;7.25;2.50;;;;;;;;;;5015390;28;20046;-76
2022/06/20 15:33:24;;;;;;;5.80;2.08;;;;;;;;;;5014783;28;20046;-75
2022/06/20 15:36:25;;;;;;;4.28;2.28;;;;;;;;;;5015299;28;20050;-77
2022/06/20 15:39:46;;;;;;;5.30;2.05;;;;;;;;;;5014510;28;20042;-75
2022/06/20 15:42:45;;;;;;;12.75;2.20;;;;;;;;;;5012585;28;20042;-75
2022/06/20 15:45:40;;;;;;;6.35;2.30;;;;;;;;;;5014952;28;20423;-74
2022/06/20 15:48:38;;;;;;;7.82;2.63;;;;;;;;;;5014626;28;20054;-77
2022/06/20 15:51:44;;;;;;;5.15;2.00;;;;;;;;;;5015039;28;20049;-77
2022/06/20 15:55:31;;;;;;;4.97;2.30;;;;;;;;;;4992042;28;20050;-75
2022/06/20 15:58:31;;;;;;;9.15;2.85;;;;;;;;;;4980586;28;20050;-77
2022/06/20 16:01:40;;;;;;;4.03;2.08;;;;;;;;;;4972855;28;20051;-74
2022/06/20 16:04:39;;;;;;;4.68;1.92;;;;;;;;;;5020681;28;20053;-77
2022/06/20 16:07:30;;;;;;;2.45;1.98;;;;;;;;;;5014170;28;20049;-78
2022/06/20 16:10:43;;;;;;;9.40;2.22;;;;;;;;;;5006972;28;20050;-74
2022/06/20 16:13:32;;;;;;;6.07;2.17;;;;;;;;;;5020339;28;20049;-73
2022/06/20 16:16:20;;;;;;;3.00;1.88;;;;;;;;;;5014310;28;20050;-75
2022/06/20 16:19:15;;;;;;;3.92;2.28;;;;;;;;;;5015090;28;20042;-78
2022/06/20 16:22:10;;;;;;;5.10;2.10;;;;;;;;;;5005837;28;20042;-77
2022/06/20 16:25:04;;;;;;;3.42;2.00;;;;;;;;;;5014515;28;20038;-74
2022/06/20 16:28:04;;;;;;;5.78;2.40;;;;;;;;;;5014691;28;20038;-74
2022/06/20 16:31:22;;;;;;;3.53;2.60;;;;;;;;;;5014185;28;20041;-76
2022/06/20 16:34:33;;;;;;;4.05;2.33;;;;;;;;;;5014682;28;20050;-74
2022/06/20 16:37:28;;;;;;;6.10;2.63;;;;;;;;;;5013838;28;20403;-76
2022/06/20 16:40:16;;;;;;;3.30;2.00;;;;;;;;;;5014226;28;20053;-75
2022/06/20 16:43:27;;;;;;;4.85;2.40;;;;;;;;;;5013570;28;20476;-75
2022/06/20 16:46:21;;;;;;;4.47;2.45;;;;;;;;;;5014433;28;20403;-74
2022/06/20 16:49:36;;;;;;;3.40;2.33;;;;;;;;;;5014247;28;20054;-74
2022/06/20 16:52:33;;;;;;;4.78;2.40;;;;;;;;;;5014058;28;20049;-76
2022/06/20 16:55:24;;;;;;;5.70;2.58;;;;;;;;;;5020812;28;20054;-74
2022/06/20 16:58:15;;;;;;;7.25;2.95;;;;;;;;;;5013613;28;20042;-74
2022/06/20 17:01:25;;;;;;;6.35;2.85;;;;;;;;;;5014341;28;20046;-75
2022/06/20 17:04:29;;;;;;;7.22;3.00;;;;;;;;;;5013761;28;20050;-74
2022/06/20 17:07:23;;;;;;;4.18;2.53;;;;;;;;;;5020590;28;20049;-76
2022/06/20 17:10:11;;;;;;;7.18;2.97;;;;;;;;;;5013969;28;20049;-75
2022/06/20 17:13:27;;;;;;;5.85;2.47;;;;;;;;;;5013363;28;20038;-76
2022/06/20 17:16:35;;;;;;;4.38;2.45;;;;;;;;;;5013742;28;20042;-75
2022/06/20 17:19:39;;;;;;;5.15;2.33;;;;;;;;;;5013308;28;20045;-74
2022/06/20 17:22:26;;;;;;;8.77;2.80;;;;;;;;;;5013936;28;20499;-74
2022/06/20 17:25:21;;;;;;;6.22;2.63;;;;;;;;;;5013253;28;20042;-74
2022/06/20 17:28:28;;;;;;;6.55;2.65;;;;;;;;;;5013467;28;20042;-76
2022/06/20 17:31:23;;;;;;;9.93;2.63;;;;;;;;;;5020340;28;20046;-76
2022/06/20 17:34:11;;;;;;;4.18;2.60;;;;;;;;;;5013419;28;20046;-74
2022/06/20 17:37:16;;;;;;;4.55;2.67;;;;;;;;;;5013970;28;20046;-73
2022/06/20 17:40:06;;;;;;;;;;;;;;;;;;5013585;28;20050;-73
2022/06/20 17:42:57;;;;;;;5.13;2.50;;;;;;;;;;5013854;28;19921;-75
2022/06/20 17:46:04;;;;;;;5.10;2.53;;;;;;;;;;5013369;28;20054;-74
2022/06/20 17:49:26;;;;;;;4.20;2.63;;;;;;;;;;5012832;28;20042;-74
2022/06/20 17:52:35;;;;;;;9.30;2.85;;;;;;;;;;5019963;28;20045;-73
2022/06/20 17:55:52;;;;;;;9.68;3.63;;;;;;;;;;5019536;28;20050;-75
2022/06/20 17:59:03;;;;;;;7.03;3.90;;;;;;;;;;5013463;28;20045;-74